sensor_id;sensor_type;location;lat;lon;timestamp;pressure;altitude;pressure_sealevel;temperature;humidity
82353;BME280;71954;47.430;18.920;2023-08-08T00:02:17;99862.44;;;15.75;64.53
82353;BME280;71954;47.430;18.920;2023-08-08T00:04:44;99867.47;;;15.78;63.16
82353;BME280;71954;47.430;18.920;2023-08-08T00:07:10;99869.34;;;15.86;62.78
82353;BME280;71954;47.430;18.920;2023-08-08T00:09:37;99874.22;;;15.91;63.08
82353;BME280;71954;47.430;18.920;2023-08-08T00:12:04;99874.88;;;15.93;63.43
82353;BME280;71954;47.430;18.920;2023-08-08T00:14:31;99875.38;;;15.88;63.10
82353;BME280;71954;47.430;18.920;2023-08-08T00:16:57;99877.53;;;15.84;63.50
82353;BME280;71954;47.430;18.920;2023-08-08T00:19:24;99877.53;;;15.84;63.77
82353;BME280;71954;47.430;18.920;2023-08-08T00:21:50;99873.66;;;15.79;63.66
82353;BME280;71954;47.430;18.920;2023-08-08T00:24:17;99880.81;;;15.70;64.34
82353;BME280;71954;47.430;18.920;2023-08-08T00:26:44;99874.41;;;15.63;64.23
82353;BME280;71954;47.430;18.920;2023-08-08T00:29:10;99881.72;;;15.61;65.16
82353;BME280;71954;47.430;18.920;2023-08-08T00:31:37;99880.38;;;15.57;64.76
82353;BME280;71954;47.430;18.920;2023-08-08T00:34:03;99868.78;;;15.48;65.31
82353;BME280;71954;47.430;18.920;2023-08-08T00:36:30;99876.59;;;15.42;65.20
82353;BME280;71954;47.430;18.920;2023-08-08T00:38:57;99871.94;;;15.26;65.93
82353;BME280;71954;47.430;18.920;2023-08-08T00:41:23;99871.56;;;15.21;66.64
82353;BME280;71954;47.430;18.920;2023-08-08T00:43:50;99870.69;;;15.13;66.72
82353;BME280;71954;47.430;18.920;2023-08-08T00:46:22;99875.13;;;15.04;67.25
82353;BME280;71954;47.430;18.920;2023-08-08T00:48:54;99879.94;;;15.00;67.48
82353;BME280;71954;47.430;18.920;2023-08-08T00:51:21;99881.22;;;14.96;67.81
82353;BME280;71954;47.430;18.920;2023-08-08T00:53:47;99877.03;;;14.94;67.56
82353;BME280;71954;47.430;18.920;2023-08-08T00:56:15;99870.31;;;14.90;67.90
82353;BME280;71954;47.430;18.920;2023-08-08T00:58:43;99878.50;;;14.88;68.03
82353;BME280;71954;47.430;18.920;2023-08-08T01:01:12;99871.75;;;14.84;68.20
82353;BME280;71954;47.430;18.920;2023-08-08T01:03:39;99872.22;;;14.80;68.29
82353;BME280;71954;47.430;18.920;2023-08-08T01:06:13;99868.56;;;14.81;68.48
82353;BME280;71954;47.430;18.920;2023-08-08T01:08:47;99877.41;;;14.81;68.41
82353;BME280;71954;47.430;18.920;2023-08-08T01:11:15;99880.94;;;14.82;68.47
82353;BME280;71954;47.430;18.920;2023-08-08T01:13:43;99877.81;;;14.86;68.52
82353;BME280;71954;47.430;18.920;2023-08-08T01:16:11;99873.16;;;14.88;68.21
82353;BME280;71954;47.430;18.920;2023-08-08T01:18:38;99880.84;;;14.91;68.11
82353;BME280;71954;47.430;18.920;2023-08-08T01:21:08;99875.50;;;14.91;68.40
82353;BME280;71954;47.430;18.920;2023-08-08T01:23:45;99875.34;;;14.93;67.89
82353;BME280;71954;47.430;18.920;2023-08-08T01:26:13;99867.25;;;14.85;68.63
82353;BME280;71954;47.430;18.920;2023-08-08T01:28:42;99875.28;;;14.85;68.75
82353;BME280;71954;47.430;18.920;2023-08-08T01:31:09;99878.63;;;14.87;68.65
82353;BME280;71954;47.430;18.920;2023-08-08T01:33:35;99868.72;;;14.79;68.74
82353;BME280;71954;47.430;18.920;2023-08-08T01:36:12;99869.03;;;14.76;68.82
82353;BME280;71954;47.430;18.920;2023-08-08T01:38:44;99869.03;;;14.76;69.04
82353;BME280;71954;47.430;18.920;2023-08-08T01:41:14;99872.53;;;14.77;69.46
82353;BME280;71954;47.430;18.920;2023-08-08T01:43:42;99874.97;;;14.70;69.11
82353;BME280;71954;47.430;18.920;2023-08-08T01:46:09;99874.97;;;14.70;69.68
82353;BME280;71954;47.430;18.920;2023-08-08T01:48:36;99875.50;;;14.74;69.15
82353;BME280;71954;47.430;18.920;2023-08-08T01:51:03;99877.94;;;14.67;69.41
82353;BME280;71954;47.430;18.920;2023-08-08T01:53:29;99877.41;;;14.63;69.72
82353;BME280;71954;47.430;18.920;2023-08-08T01:55:56;99884.88;;;14.60;70.03
82353;BME280;71954;47.430;18.920;2023-08-08T01:58:22;99878.44;;;14.53;70.36
82353;BME280;71954;47.430;18.920;2023-08-08T02:00:49;99871.75;;;14.49;70.46
82353;BME280;71954;47.430;18.920;2023-08-08T02:03:16;99873.44;;;14.50;70.20
82353;BME280;71954;47.430;18.920;2023-08-08T02:05:42;99882.13;;;14.52;70.32
82353;BME280;71954;47.430;18.920;2023-08-08T02:08:09;99886.19;;;14.56;70.35
82353;BME280;71954;47.430;18.920;2023-08-08T02:10:36;99877.63;;;14.52;70.37
82353;BME280;71954;47.430;18.920;2023-08-08T02:13:02;99881.59;;;14.48;70.59
82353;BME280;71954;47.430;18.920;2023-08-08T02:15:29;99878.06;;;14.48;70.21
82353;BME280;71954;47.430;18.920;2023-08-08T02:17:56;99881.91;;;14.45;70.45
82353;BME280;71954;47.430;18.920;2023-08-08T02:20:22;99874.50;;;14.39;70.58
82353;BME280;71954;47.430;18.920;2023-08-08T02:22:49;99876.00;;;14.42;70.37
82353;BME280;71954;47.430;18.920;2023-08-08T02:25:16;99876.00;;;14.42;70.48
82353;BME280;71954;47.430;18.920;2023-08-08T02:27:42;99880.91;;;14.37;70.79
82353;BME280;71954;47.430;18.920;2023-08-08T02:30:09;99884.19;;;14.31;71.02
82353;BME280;71954;47.430;18.920;2023-08-08T02:32:36;99884.50;;;14.27;70.82
82353;BME280;71954;47.430;18.920;2023-08-08T02:35:03;99886.47;;;14.25;71.28
82353;BME280;71954;47.430;18.920;2023-08-08T02:37:30;99885.94;;;14.22;71.39
82353;BME280;71954;47.430;18.920;2023-08-08T02:39:56;99903.09;;;14.19;71.62
82353;BME280;71954;47.430;18.920;2023-08-08T02:42:23;99903.63;;;14.23;71.11
82353;BME280;71954;47.430;18.920;2023-08-08T02:44:49;99910.94;;;14.21;71.71
82353;BME280;71954;47.430;18.920;2023-08-08T02:47:16;99914.06;;;14.16;71.70
82353;BME280;71954;47.430;18.920;2023-08-08T02:49:42;99908.56;;;14.18;71.25
82353;BME280;71954;47.430;18.920;2023-08-08T02:52:09;99906.47;;;14.21;71.40
82353;BME280;71954;47.430;18.920;2023-08-08T02:54:36;99909.97;;;14.22;71.11
82353;BME280;71954;47.430;18.920;2023-08-08T02:57:03;99911.78;;;14.21;71.36
82353;BME280;71954;47.430;18.920;2023-08-08T02:59:29;99914.59;;;14.20;71.41
82353;BME280;71954;47.430;18.920;2023-08-08T03:01:56;99915.44;;;14.20;71.18
82353;BME280;71954;47.430;18.920;2023-08-08T03:04:23;99910.94;;;14.21;71.14
82353;BME280;71954;47.430;18.920;2023-08-08T03:06:50;99913.91;;;14.18;71.32
82353;BME280;71954;47.430;18.920;2023-08-08T03:09:16;99923.06;;;14.15;71.61
82353;BME280;71954;47.430;18.920;2023-08-08T03:11:43;99919.69;;;14.13;71.31
82353;BME280;71954;47.430;18.920;2023-08-08T03:14:09;99925.34;;;14.10;71.61
82353;BME280;71954;47.430;18.920;2023-08-08T03:16:36;99929.53;;;14.13;71.29
82353;BME280;71954;47.430;18.920;2023-08-08T03:19:03;99932.06;;;14.14;71.43
82353;BME280;71954;47.430;18.920;2023-08-08T03:21:30;99939.75;;;14.17;71.56
82353;BME280;71954;47.430;18.920;2023-08-08T03:23:57;99944.69;;;14.22;71.16
82353;BME280;71954;47.430;18.920;2023-08-08T03:26:23;99953.22;;;14.25;71.21
82353;BME280;71954;47.430;18.920;2023-08-08T03:28:50;99956.41;;;14.29;70.65
82353;BME280;71954;47.430;18.920;2023-08-08T03:31:20;99956.59;;;14.27;70.67
82353;BME280;71954;47.430;18.920;2023-08-08T03:33:47;99962.47;;;14.31;70.53
82353;BME280;71954;47.430;18.920;2023-08-08T03:36:14;99958.25;;;14.38;69.96
82353;BME280;71954;47.430;18.920;2023-08-08T03:38:41;99963.69;;;14.37;70.39
82353;BME280;71954;47.430;18.920;2023-08-08T03:41:12;99959.78;;;14.41;69.93
82353;BME280;71954;47.430;18.920;2023-08-08T03:43:40;99968.88;;;14.48;69.55
82353;BME280;71954;47.430;18.920;2023-08-08T03:46:06;99964.22;;;14.50;69.50
82353;BME280;71954;47.430;18.920;2023-08-08T03:48:33;99962.53;;;14.49;69.58
82353;BME280;71954;47.430;18.920;2023-08-08T03:51:00;99967.19;;;14.47;69.63
82353;BME280;71954;47.430;18.920;2023-08-08T03:53:26;99963.97;;;14.43;69.60
82353;BME280;71954;47.430;18.920;2023-08-08T03:55:53;99962.84;;;14.46;69.43
82353;BME280;71954;47.430;18.920;2023-08-08T03:58:19;99962.53;;;14.49;68.89
82353;BME280;71954;47.430;18.920;2023-08-08T04:00:46;99971.53;;;14.48;69.00
82353;BME280;71954;47.430;18.920;2023-08-08T04:03:14;99976.59;;;14.51;68.42
82353;BME280;71954;47.430;18.920;2023-08-08T04:05:44;99979.13;;;14.52;68.79
82353;BME280;71954;47.430;18.920;2023-08-08T04:08:13;99988.28;;;14.50;68.83
82353;BME280;71954;47.430;18.920;2023-08-08T04:10:41;99987.28;;;14.51;68.77
82353;BME280;71954;47.430;18.920;2023-08-08T04:13:07;99996.81;;;14.53;68.85
82353;BME280;71954;47.430;18.920;2023-08-08T04:15:34;99994.31;;;14.52;68.72
82353;BME280;71954;47.430;18.920;2023-08-08T04:18:01;99995.69;;;14.56;68.06
82353;BME280;71954;47.430;18.920;2023-08-08T04:20:27;100002.28;;;14.61;68.22
82353;BME280;71954;47.430;18.920;2023-08-08T04:22:54;100006.19;;;14.67;68.35
82353;BME280;71954;47.430;18.920;2023-08-08T04:25:21;100010.22;;;14.71;68.47
82353;BME280;71954;47.430;18.920;2023-08-08T04:27:47;100016.66;;;14.78;67.90
82353;BME280;71954;47.430;18.920;2023-08-08T04:30:14;100007.06;;;14.85;68.05
82353;BME280;71954;47.430;18.920;2023-08-08T04:32:41;100007.44;;;14.90;68.43
82353;BME280;71954;47.430;18.920;2023-08-08T04:35:07;100005.16;;;14.95;68.15
82353;BME280;71954;47.430;18.920;2023-08-08T04:37:34;100011.59;;;15.02;67.80
82353;BME280;71954;47.430;18.920;2023-08-08T04:40:00;100006.63;;;15.07;67.52
82353;BME280;71954;47.430;18.920;2023-08-08T04:42:27;100014.03;;;15.14;67.79
82353;BME280;71954;47.430;18.920;2023-08-08T04:44:54;100009.63;;;15.22;66.87
82353;BME280;71954;47.430;18.920;2023-08-08T04:47:20;100020.00;;;15.25;67.53
82353;BME280;71954;47.430;18.920;2023-08-08T04:49:47;100024.91;;;15.12;66.86
82353;BME280;71954;47.430;18.920;2023-08-08T04:52:14;100018.31;;;14.89;67.54
82353;BME280;71954;47.430;18.920;2023-08-08T04:54:40;100025.69;;;14.95;67.57
82353;BME280;71954;47.430;18.920;2023-08-08T04:57:07;100021.72;;;14.81;67.73
82353;BME280;71954;47.430;18.920;2023-08-08T04:59:33;100030.41;;;14.83;67.27
82353;BME280;71954;47.430;18.920;2023-08-08T05:02:00;100023.25;;;15.01;67.96
82353;BME280;71954;47.430;18.920;2023-08-08T05:04:27;100027.97;;;15.35;67.07
82353;BME280;71954;47.430;18.920;2023-08-08T05:06:54;100031.72;;;15.77;65.20
82353;BME280;71954;47.430;18.920;2023-08-08T05:09:21;100027.56;;;16.26;62.80
82353;BME280;71954;47.430;18.920;2023-08-08T05:11:49;100028.03;;;16.82;61.94
82353;BME280;71954;47.430;18.920;2023-08-08T05:14:17;100024.44;;;17.31;60.15
82353;BME280;71954;47.430;18.920;2023-08-08T05:16:43;100027.34;;;17.78;59.17
82353;BME280;71954;47.430;18.920;2023-08-08T05:19:10;100026.28;;;18.28;57.34
82353;BME280;71954;47.430;18.920;2023-08-08T05:21:37;100025.56;;;18.58;55.42
82353;BME280;71954;47.430;18.920;2023-08-08T05:24:04;100030.25;;;19.03;53.68
82353;BME280;71954;47.430;18.920;2023-08-08T05:26:30;100017.25;;;19.38;53.75
82353;BME280;71954;47.430;18.920;2023-08-08T05:28:57;100032.47;;;19.76;51.61
82353;BME280;71954;47.430;18.920;2023-08-08T05:31:24;100022.34;;;20.16;50.48
82353;BME280;71954;47.430;18.920;2023-08-08T05:33:50;100025.34;;;20.50;49.53
82353;BME280;71954;47.430;18.920;2023-08-08T05:36:17;100026.16;;;20.95;48.34
82353;BME280;71954;47.430;18.920;2023-08-08T05:38:44;100015.31;;;21.24;48.03
82353;BME280;71954;47.430;18.920;2023-08-08T05:41:10;100021.75;;;21.66;46.70
82353;BME280;71954;47.430;18.920;2023-08-08T05:43:37;100011.50;;;21.82;45.73
82353;BME280;71954;47.430;18.920;2023-08-08T05:46:03;100024.03;;;22.39;45.35
82353;BME280;71954;47.430;18.920;2023-08-08T05:48:30;100024.31;;;22.51;44.28
82353;BME280;71954;47.430;18.920;2023-08-08T05:50:56;100021.38;;;22.80;43.52
82353;BME280;71954;47.430;18.920;2023-08-08T05:53:25;100028.16;;;23.10;42.99
82353;BME280;71954;47.430;18.920;2023-08-08T05:55:52;100028.72;;;23.53;41.83
82353;BME280;71954;47.430;18.920;2023-08-08T05:58:18;100023.34;;;23.86;40.85
82353;BME280;71954;47.430;18.920;2023-08-08T06:00:45;100028.97;;;24.24;40.46
82353;BME280;71954;47.430;18.920;2023-08-08T06:03:12;100023.34;;;24.13;40.01
82353;BME280;71954;47.430;18.920;2023-08-08T06:05:38;100011.19;;;24.48;40.77
82353;BME280;71954;47.430;18.920;2023-08-08T06:08:05;100024.88;;;24.80;39.62
82353;BME280;71954;47.430;18.920;2023-08-08T06:10:34;100016.78;;;25.24;38.05
82353;BME280;71954;47.430;18.920;2023-08-08T06:13:01;100026.72;;;25.43;36.93
82353;BME280;71954;47.430;18.920;2023-08-08T06:15:27;100021.47;;;25.48;36.88
82353;BME280;71954;47.430;18.920;2023-08-08T06:17:54;100028.19;;;25.39;37.35
82353;BME280;71954;47.430;18.920;2023-08-08T06:20:21;100032.00;;;25.70;36.83
82353;BME280;71954;47.430;18.920;2023-08-08T06:22:48;100039.56;;;25.68;36.23
82353;BME280;71954;47.430;18.920;2023-08-08T06:25:15;100035.25;;;25.85;35.88
82353;BME280;71954;47.430;18.920;2023-08-08T06:27:42;100041.91;;;25.89;35.86
82353;BME280;71954;47.430;18.920;2023-08-08T06:30:08;100045.72;;;25.05;37.10
82353;BME280;71954;47.430;18.920;2023-08-08T06:32:35;100039.59;;;25.54;36.90
82353;BME280;71954;47.430;18.920;2023-08-08T06:35:02;100033.50;;;25.66;37.04
82353;BME280;71954;47.430;18.920;2023-08-08T06:37:29;100050.44;;;25.92;35.95
82353;BME280;71954;47.430;18.920;2023-08-08T06:39:56;100046.13;;;26.34;35.03
82353;BME280;71954;47.430;18.920;2023-08-08T06:42:22;100046.78;;;26.55;34.49
82353;BME280;71954;47.430;18.920;2023-08-08T06:44:49;100041.44;;;26.42;35.08
82353;BME280;71954;47.430;18.920;2023-08-08T06:47:15;100029.50;;;25.68;36.21
82353;BME280;71954;47.430;18.920;2023-08-08T06:49:42;100041.44;;;25.29;37.21
82353;BME280;71954;47.430;18.920;2023-08-08T06:52:09;100042.00;;;24.87;37.50
82353;BME280;71954;47.430;18.920;2023-08-08T06:54:35;100051.81;;;24.88;37.33
82353;BME280;71954;47.430;18.920;2023-08-08T06:57:02;100049.19;;;24.48;38.03
82353;BME280;71954;47.430;18.920;2023-08-08T06:59:29;100054.19;;;24.64;38.45
82353;BME280;71954;47.430;18.920;2023-08-08T07:01:55;100050.03;;;24.42;37.41
82353;BME280;71954;47.430;18.920;2023-08-08T07:04:23;100054.19;;;24.64;37.47
82353;BME280;71954;47.430;18.920;2023-08-08T07:06:49;100060.81;;;24.82;37.29
82353;BME280;71954;47.430;18.920;2023-08-08T07:09:17;100061.59;;;25.02;37.65
82353;BME280;71954;47.430;18.920;2023-08-08T07:11:44;100059.13;;;24.94;37.66
82353;BME280;71954;47.430;18.920;2023-08-08T07:14:11;100064.19;;;24.77;36.89
82353;BME280;71954;47.430;18.920;2023-08-08T07:16:38;100057.16;;;24.30;38.02
82353;BME280;71954;47.430;18.920;2023-08-08T07:19:04;100067.94;;;23.64;39.79
82353;BME280;71954;47.430;18.920;2023-08-08T07:21:32;100060.94;;;23.29;40.65
82353;BME280;71954;47.430;18.920;2023-08-08T07:23:59;100071.09;;;23.13;41.56
82353;BME280;71954;47.430;18.920;2023-08-08T07:26:26;100075.09;;;22.77;41.79
82353;BME280;71954;47.430;18.920;2023-08-08T07:28:52;100083.44;;;22.82;41.41
82353;BME280;71954;47.430;18.920;2023-08-08T07:31:18;100084.88;;;22.50;42.05
82353;BME280;71954;47.430;18.920;2023-08-08T07:33:45;100085.13;;;21.84;43.46
82353;BME280;71954;47.430;18.920;2023-08-08T07:36:12;100085.94;;;22.00;43.54
82353;BME280;71954;47.430;18.920;2023-08-08T07:38:38;100086.31;;;21.75;43.50
82353;BME280;71954;47.430;18.920;2023-08-08T07:41:05;100097.59;;;21.64;44.68
82353;BME280;71954;47.430;18.920;2023-08-08T07:43:32;100093.03;;;21.43;44.41
82353;BME280;71954;47.430;18.920;2023-08-08T07:45:59;100093.03;;;21.43;45.44
82353;BME280;71954;47.430;18.920;2023-08-08T07:48:25;100092.16;;;21.58;45.27
82353;BME280;71954;47.430;18.920;2023-08-08T07:50:52;100099.78;;;21.54;46.55
82353;BME280;71954;47.430;18.920;2023-08-08T07:53:18;100095.97;;;21.48;45.41
82353;BME280;71954;47.430;18.920;2023-08-08T07:55:45;100091.75;;;21.39;45.66
82353;BME280;71954;47.430;18.920;2023-08-08T07:58:11;100096.06;;;21.19;45.94
82353;BME280;71954;47.430;18.920;2023-08-08T08:00:38;100088.63;;;21.42;46.12
82353;BME280;71954;47.430;18.920;2023-08-08T08:03:05;100088.84;;;21.11;45.28
82353;BME280;71954;47.430;18.920;2023-08-08T08:05:33;100084.84;;;21.22;45.85
82353;BME280;71954;47.430;18.920;2023-08-08T08:08:01;100097.06;;;21.18;45.82
82353;BME280;71954;47.430;18.920;2023-08-08T08:10:27;100101.34;;;21.27;45.23
82353;BME280;71954;47.430;18.920;2023-08-08T08:12:54;100101.13;;;21.43;45.30
82353;BME280;71954;47.430;18.920;2023-08-08T08:15:25;100090.81;;;21.32;45.36
82353;BME280;71954;47.430;18.920;2023-08-08T08:17:52;100088.75;;;21.34;45.29
82353;BME280;71954;47.430;18.920;2023-08-08T08:20:18;100092.19;;;21.43;45.57
82353;BME280;71954;47.430;18.920;2023-08-08T08:22:45;100095.09;;;21.63;44.02
82353;BME280;71954;47.430;18.920;2023-08-08T08:25:13;100103.22;;;21.63;43.73
82353;BME280;71954;47.430;18.920;2023-08-08T08:27:40;100106.59;;;21.71;43.96
82353;BME280;71954;47.430;18.920;2023-08-08T08:30:07;100096.91;;;21.77;42.44
82353;BME280;71954;47.430;18.920;2023-08-08T08:32:36;100100.06;;;21.80;42.47
82353;BME280;71954;47.430;18.920;2023-08-08T08:35:04;100104.50;;;21.88;42.52
82353;BME280;71954;47.430;18.920;2023-08-08T08:37:33;100108.88;;;21.89;43.35
82353;BME280;71954;47.430;18.920;2023-08-08T08:40:00;100109.63;;;21.98;42.33
82353;BME280;71954;47.430;18.920;2023-08-08T08:42:27;100109.63;;;21.98;42.50
82353;BME280;71954;47.430;18.920;2023-08-08T08:44:57;100093.66;;;22.03;42.73
82353;BME280;71954;47.430;18.920;2023-08-08T08:47:25;100093.75;;;21.94;42.43
82353;BME280;71954;47.430;18.920;2023-08-08T08:49:52;100095.38;;;21.68;44.81
82353;BME280;71954;47.430;18.920;2023-08-08T08:52:19;100099.72;;;21.90;42.29
82353;BME280;71954;47.430;18.920;2023-08-08T08:54:46;100091.38;;;21.85;43.06
82353;BME280;71954;47.430;18.920;2023-08-08T08:57:13;100092.16;;;21.58;43.45
82353;BME280;71954;47.430;18.920;2023-08-08T08:59:39;100085.47;;;21.75;43.98
82353;BME280;71954;47.430;18.920;2023-08-08T09:02:06;100090.72;;;21.62;43.28
82353;BME280;71954;47.430;18.920;2023-08-08T09:04:34;100089.19;;;21.74;42.86
82353;BME280;71954;47.430;18.920;2023-08-08T09:07:06;100089.00;;;21.75;44.28
82353;BME280;71954;47.430;18.920;2023-08-08T09:09:33;100091.50;;;21.77;43.45
82353;BME280;71954;47.430;18.920;2023-08-08T09:12:02;100089.50;;;21.64;43.61
82353;BME280;71954;47.430;18.920;2023-08-08T09:14:30;100092.00;;;21.66;44.56
82353;BME280;71954;47.430;18.920;2023-08-08T09:16:57;100095.31;;;21.46;43.07
82353;BME280;71954;47.430;18.920;2023-08-08T09:19:24;100101.81;;;21.52;44.49
82353;BME280;71954;47.430;18.920;2023-08-08T09:21:52;100098.03;;;21.46;44.45
82353;BME280;71954;47.430;18.920;2023-08-08T09:24:19;100103.44;;;21.46;45.36
82353;BME280;71954;47.430;18.920;2023-08-08T09:26:45;100105.03;;;21.41;44.79
82353;BME280;71954;47.430;18.920;2023-08-08T09:29:13;100104.34;;;21.53;46.68
82353;BME280;71954;47.430;18.920;2023-08-08T09:31:41;100115.69;;;21.64;45.74
82353;BME280;71954;47.430;18.920;2023-08-08T09:34:08;100100.19;;;21.51;45.26
82353;BME280;71954;47.430;18.920;2023-08-08T09:36:35;100102.38;;;21.62;44.63
82353;BME280;71954;47.430;18.920;2023-08-08T09:39:03;100106.34;;;21.66;42.90
82353;BME280;71954;47.430;18.920;2023-08-08T09:41:30;100102.31;;;21.77;42.77
82353;BME280;71954;47.430;18.920;2023-08-08T09:43:58;100104.50;;;21.67;43.34
82353;BME280;71954;47.430;18.920;2023-08-08T09:46:26;100100.25;;;21.58;43.60
82353;BME280;71954;47.430;18.920;2023-08-08T09:48:53;100096.13;;;21.62;43.47
82353;BME280;71954;47.430;18.920;2023-08-08T09:51:20;100106.13;;;21.46;43.77
82353;BME280;71954;47.430;18.920;2023-08-08T09:53:48;100110.97;;;21.15;43.31
82353;BME280;71954;47.430;18.920;2023-08-08T09:56:15;100100.78;;;21.17;44.32
82353;BME280;71954;47.430;18.920;2023-08-08T09:58:42;100103.16;;;21.41;42.11
82353;BME280;71954;47.430;18.920;2023-08-08T10:01:11;100096.41;;;21.52;42.19
82353;BME280;71954;47.430;18.920;2023-08-08T10:03:41;100100.19;;;21.51;43.95
82353;BME280;71954;47.430;18.920;2023-08-08T10:06:10;100112.72;;;21.59;43.48
82353;BME280;71954;47.430;18.920;2023-08-08T10:08:37;100096.81;;;21.49;43.18
82353;BME280;71954;47.430;18.920;2023-08-08T10:11:05;100102.75;;;21.59;43.26
82353;BME280;71954;47.430;18.920;2023-08-08T10:13:35;100093.63;;;21.60;42.96
82353;BME280;71954;47.430;18.920;2023-08-08T10:16:09;100101.22;;;21.71;43.06
82353;BME280;71954;47.430;18.920;2023-08-08T10:18:36;100089.69;;;21.84;42.97
82353;BME280;71954;47.430;18.920;2023-08-08T10:21:04;100091.00;;;21.88;42.11
82353;BME280;71954;47.430;18.920;2023-08-08T10:23:37;100094.31;;;21.90;41.99
82353;BME280;71954;47.430;18.920;2023-08-08T10:26:05;100088.00;;;21.83;42.49
82353;BME280;71954;47.430;18.920;2023-08-08T10:28:32;100083.81;;;21.95;42.10
82353;BME280;71954;47.430;18.920;2023-08-08T10:31:01;100080.81;;;21.90;42.57
82353;BME280;71954;47.430;18.920;2023-08-08T10:33:42;100086.88;;;21.92;43.21
82353;BME280;71954;47.430;18.920;2023-08-08T10:36:09;100078.03;;;21.83;42.21
82353;BME280;71954;47.430;18.920;2023-08-08T10:38:44;100079.97;;;21.89;42.16
82353;BME280;71954;47.430;18.920;2023-08-08T10:41:18;100078.22;;;21.97;40.76
82353;BME280;71954;47.430;18.920;2023-08-08T10:46:31;100078.28;;;22.03;41.03
82353;BME280;71954;47.430;18.920;2023-08-08T10:49:00;100076.84;;;22.07;41.35
82353;BME280;71954;47.430;18.920;2023-08-08T10:51:39;100080.78;;;22.05;41.48
82353;BME280;71954;47.430;18.920;2023-08-08T10:54:13;100077.69;;;22.08;42.40
82353;BME280;71954;47.430;18.920;2023-08-08T10:56:41;100076.66;;;22.09;41.90
82353;BME280;71954;47.430;18.920;2023-08-08T10:59:15;100071.25;;;22.09;41.22
82353;BME280;71954;47.430;18.920;2023-08-08T11:01:45;100067.63;;;22.02;42.41
82353;BME280;71954;47.430;18.920;2023-08-08T11:04:12;100070.28;;;21.95;42.53
82353;BME280;71954;47.430;18.920;2023-08-08T11:06:39;100065.25;;;22.13;44.07
82353;BME280;71954;47.430;18.920;2023-08-08T11:09:07;100068.06;;;22.26;42.26
82353;BME280;71954;47.430;18.920;2023-08-08T11:11:39;100066.47;;;22.39;40.31
82353;BME280;71954;47.430;18.920;2023-08-08T11:14:24;100071.09;;;22.45;41.56
82353;BME280;71954;47.430;18.920;2023-08-08T11:16:51;100066.28;;;22.40;40.88
82353;BME280;71954;47.430;18.920;2023-08-08T11:19:19;100066.53;;;22.45;41.87
82353;BME280;71954;47.430;18.920;2023-08-08T11:21:47;100064.09;;;22.57;41.75
82353;BME280;71954;47.430;18.920;2023-08-08T11:24:14;100058.72;;;22.63;40.38
82353;BME280;71954;47.430;18.920;2023-08-08T11:26:43;100058.13;;;22.68;39.53
82353;BME280;71954;47.430;18.920;2023-08-08T11:29:11;100057.09;;;22.69;40.13
82353;BME280;71954;47.430;18.920;2023-08-08T11:31:38;100061.09;;;22.73;41.67
82353;BME280;71954;47.430;18.920;2023-08-08T11:34:05;100054.28;;;22.77;39.59
82353;BME280;71954;47.430;18.920;2023-08-08T11:36:35;100053.97;;;22.65;40.15
82353;BME280;71954;47.430;18.920;2023-08-08T11:39:02;100051.59;;;22.56;40.46
82353;BME280;71954;47.430;18.920;2023-08-08T11:41:35;100038.91;;;22.56;40.38
82353;BME280;71954;47.430;18.920;2023-08-08T11:44:05;100042.53;;;22.70;40.08
82353;BME280;71954;47.430;18.920;2023-08-08T11:46:34;100044.47;;;22.76;39.85
82353;BME280;71954;47.430;18.920;2023-08-08T11:49:04;100037.97;;;22.70;39.66
82353;BME280;71954;47.430;18.920;2023-08-08T11:51:34;100040.88;;;22.69;39.73
82353;BME280;71954;47.430;18.920;2023-08-08T11:54:03;100033.00;;;22.74;38.81
82353;BME280;71954;47.430;18.920;2023-08-08T11:56:33;100038.88;;;22.78;39.11
82353;BME280;71954;47.430;18.920;2023-08-08T11:59:01;100029.28;;;22.75;39.62
82353;BME280;71954;47.430;18.920;2023-08-08T12:01:31;100028.47;;;22.81;40.27
82353;BME280;71954;47.430;18.920;2023-08-08T12:03:57;100025.97;;;22.86;40.31
82353;BME280;71954;47.430;18.920;2023-08-08T12:06:28;100029.97;;;22.97;39.16
82353;BME280;71954;47.430;18.920;2023-08-08T12:08:55;100017.13;;;23.05;39.63
82353;BME280;71954;47.430;18.920;2023-08-08T12:11:22;100018.16;;;23.11;37.53
82353;BME280;71954;47.430;18.920;2023-08-08T12:13:58;100009.44;;;23.16;36.65
82353;BME280;71954;47.430;18.920;2023-08-08T12:16:30;100014.00;;;23.08;37.41
82353;BME280;71954;47.430;18.920;2023-08-08T12:19:07;100010.25;;;23.09;36.96
82353;BME280;71954;47.430;18.920;2023-08-08T12:21:35;100014.44;;;23.12;37.27
82353;BME280;71954;47.430;18.920;2023-08-08T12:24:02;100014.00;;;23.15;35.31
82353;BME280;71954;47.430;18.920;2023-08-08T12:26:29;99997.75;;;23.15;35.65
82353;BME280;71954;47.430;18.920;2023-08-08T12:28:55;99999.06;;;23.26;36.06
82353;BME280;71954;47.430;18.920;2023-08-08T12:31:22;100001.69;;;22.99;35.71
82353;BME280;71954;47.430;18.920;2023-08-08T12:33:49;100002.75;;;23.05;36.84
82353;BME280;71954;47.430;18.920;2023-08-08T12:36:17;100000.66;;;23.00;36.55
82353;BME280;71954;47.430;18.920;2023-08-08T12:38:44;99997.50;;;23.03;41.93
82353;BME280;71954;47.430;18.920;2023-08-08T12:41:12;100006.53;;;23.17;38.74
82353;BME280;71954;47.430;18.920;2023-08-08T12:43:39;99998.03;;;23.27;36.63
82353;BME280;71954;47.430;18.920;2023-08-08T12:46:06;99995.94;;;23.29;36.08
82353;BME280;71954;47.430;18.920;2023-08-08T12:48:33;99993.63;;;23.26;36.57